Overview Statistics Trail Chart Weather Telemetry Raw packets
 

This is the latest recevied weather packets stored in our database for station/object KR4KUV. If no packets are shown the sender has not sent any weather packets the latest 10 day(s).

<< 1 2 3 4 5 6 7 >>
Time Temp. Humidity Pressure Rain* Wind** Luminosity Snow
1788552998 36.67° C 51% 1016.3 hPa 0 mm - 489 W/m² -
1788552693 36.11° C 53% 1016.2 hPa 0 mm - 509 W/m² -
1788552392 36.67° C 52% 1016.4 hPa 0 mm - 518 W/m² -
1788552088 36.67° C 53% 1016.3 hPa 0 mm - 533 W/m² -
1788551786 36.11° C 53% 1016.7 hPa 0 mm - 527 W/m² -
1788551486 36.11° C 54% 1016.5 hPa 0 mm - 537 W/m² -
1788551180 36.67° C 52% 1016.6 hPa 0 mm - 181 W/m² -
1788550875 36.67° C 51% 1016.8 hPa 0 mm - 564 W/m² -
1788550569 36.11° C 52% 1016.9 hPa 0 mm - 571 W/m² -
1788550266 37.22° C 51% 1017.1 hPa 0 mm - 582 W/m² -
1788549966 36.11° C 52% 1017.2 hPa 0 mm - 597 W/m² -
1788549661 35.56° C 55% 1017.2 hPa 0 mm - 538 W/m² -
1788549358 35.56° C 54% 1017.4 hPa 0 mm - 125 W/m² -
1788549054 35° C 56% 1017.3 hPa 0 mm - 631 W/m² -
1788548749 35° C 59% 1017.5 hPa 0 mm - 383 W/m² -
1788548446 35° C 54% 1017.5 hPa 0 mm - 110 W/m² -
1788548142 35.56° C 51% 1017.7 hPa 0 mm - 481 W/m² -
1788547836 35° C 55% 1017.6 hPa 0 mm - 723 W/m² -
1788547531 35.56° C 53% 1017.8 hPa 0 mm - 194 W/m² -
1788547226 35.56° C 54% 1017.8 hPa 0 mm - 689 W/m² -
1788546921 35.56° C 54% 1017.7 hPa 0 mm - 692 W/m² -
1788546616 36.67° C 52% 1017.9 hPa 0 mm - 168 W/m² -
1788546312 36.11° C 55% 1018 hPa 0 mm - 699 W/m² -
1788546011 35° C 59% 1018 hPa 0 mm - 706 W/m² -
1788545708 35.56° C 56% 1018 hPa 0 mm - 689 W/m² -

* Rain latest hour (hover to see other rain measurements)
** Current wind speed in m/s (hover to see current wind gust speed)